Bluff Point, New York
Current Conditions -  °F | °C
As of 12:53 PM on Friday 28 Nov 2014 (Local Time) from KPEO Reporting Station
Overcast Overcast  
Wind Chill: 15°   Ceiling: 4300
Heat Index: 26°   Visibility: 10mi
Dew Point: 11°   Wind: 13mph
Humidity: 53%   Direction: 260°W
Pressure: 30.19"   Gusts: NA
Location:  42.58°N, 77.128°W
Report Text: KPEO 281753Z AUTO 26011KT 10SM OVC043 M03/M12 A3019 RMK AO2 SLP236 T10331117 11022 21050 58008
Loading
Personal Weather Stations






























Interactive Weather Map New forecast layout! Learn more

10-Day Weather Forecast

Advertisements
Track Severe Weather on mobile